Terminal Aerodrome Forecast
Issued by NWS

Home | Current Version | Previous Version | Graphics & Text | Print | Product List | Glossary On
Versions: 1 2 3 4 5 6 7 8 9 10 11 12 13 14 15 16 17 18 19 20 21 22
000
FTUS43 KABR 211738
TAFPIR
TAF
KPIR 211738Z 2118/2218 09010KT P6SM OVC025
     FM212300 10011KT P6SM OVC040
     FM220700 11015G24KT P6SM OVC025
     FM220900 12016G24KT 5SM -SN OVC025
     FM221200 13014G23KT P6SM OVC010
     FM221600 14020G28KT P6SM BKN025=

USA.gov is the U.S. government's official web portal to all federal, state and local government web resources and services.